Jean Pierre Lab — WDE9670 — position and weather

sailwx.info

Track history (hours):
 
Tides and Currents Weather Stations Pressure Air Temp Water Temp Dewpoint Dewpoint Depression Visibility Wind Speed Wind Dir Waves Ship Positions

Jean Pierre Lab

Owner: Laborde Marine Services LLC, Morgan City, LA. More information available from US FCC via Universal Licensing System and Coast Guard Vessel Documentation Center.

Last reported at 2017-Sep-21 18:11 UTC. Time now 2017-Nov-18 04:51 UTC.
Position N 29°28' W 090°43'.
Warning: this ship's position is 57 days out of date.

Length 78 m; draft 4.1 m.

Type: Cargo ship. MMSI: 366484000.

Date/timePositionNaut miles runAvg speedWind from/ knotsBaromVisibWave heightAir tempDewpointWater temp
2017-Sep-21 18:11N 29°28' W 090°43'1 6.3
2017-Sep-21 17:59N 29°29' W 090°43'3 6.3
2017-Sep-21 17:30N 29°32' W 090°42'1 2.3
2017-Sep-21 16:58N 29°34' W 090°42'0 0.0
2017-Sep-21 16:28N 29°34' W 090°42'0 0.0
2017-Sep-21 15:58N 29°34' W 090°42'0 0.0
2017-Sep-21 15:28N 29°34' W 090°42'0 0.0
2017-Sep-21 14:58N 29°34' W 090°42'0 0.0
2017-Sep-21 14:28N 29°34' W 090°42'0 0.0
2017-Sep-21 13:58N 29°34' W 090°42'0 0.0
2017-Sep-21 13:28N 29°34' W 090°42'0 0.0
2017-Sep-21 12:58N 29°34' W 090°42'0 0.0
2017-Sep-21 12:28N 29°34' W 090°42'0 0.0
2017-Sep-21 11:58N 29°34' W 090°42'0 0.0
2017-Sep-21 11:28N 29°34' W 090°42'0 0.0
2017-Sep-21 10:58N 29°34' W 090°42'0 0.0
2017-Sep-21 10:28N 29°34' W 090°42'0 0.0
2017-Sep-21 09:58N 29°34' W 090°42'0 0.0
2017-Sep-21 09:28N 29°34' W 090°42'0 0.0
2017-Sep-21 08:58N 29°34' W 090°42'0 0.0
2017-Sep-21 08:28N 29°34' W 090°42'0 0.0
2017-Sep-21 07:58N 29°34' W 090°42'0 0.0
2017-Sep-21 07:28N 29°34' W 090°42'0 0.0
2017-Sep-21 06:58N 29°34' W 090°42'0 0.0
2017-Sep-21 06:28N 29°34' W 090°42'0 0.0
2017-Sep-21 05:58N 29°34' W 090°42'0 0.0
2017-Sep-21 05:28N 29°34' W 090°42'0 0.0
2017-Sep-21 04:58N 29°34' W 090°42'0 0.0
2017-Sep-21 04:28N 29°34' W 090°42'0 0.0
2017-Sep-21 03:58N 29°34' W 090°42'0 0.0
2017-Sep-21 03:28N 29°34' W 090°42'0 0.0
2017-Sep-21 02:58N 29°34' W 090°42'0 0.0
2017-Sep-21 02:28N 29°34' W 090°42'0 0.0
2017-Sep-21 01:58N 29°34' W 090°42'0 0.0
2017-Sep-21 01:28N 29°34' W 090°42'0 0.0
2017-Sep-21 00:58N 29°34' W 090°42'0 1.1
2017-Sep-21 00:30N 29°33' W 090°42'2 4.3
2017-Sep-21 00:00N 29°34' W 090°45'3 6.9
2017-Sep-20 23:30N 29°32' W 090°49'4 8.0
2017-Sep-20 22:59N 29°33' W 090°53'5 7.9
2017-Sep-20 22:23N 29°35' W 090°58'  
Track history (hours):
 
Tides and Currents Weather Stations Pressure Air Temp Water Temp Dewpoint Dewpoint Depression Visibility Wind Speed Wind Dir Waves Ship Positions

Jean Pierre Lab

Owner: Laborde Marine Services LLC, Morgan City, LA. More information available from US FCC via Universal Licensing System and Coast Guard Vessel Documentation Center.

Last reported at 2017-Sep-21 18:11 UTC. Time now 2017-Nov-18 04:51 UTC.
Position N 29°28' W 090°43'.
Warning: this ship's position is 57 days out of date.

Length 78 m; draft 4.1 m.

Type: Cargo ship. MMSI: 366484000.

Date/timePositionNaut miles runAvg speedWind from/ knotsBaromVisibWave heightAir tempDewpointWater temp
2017-Sep-21 18:11N 29°28' W 090°43'1 6.3
2017-Sep-21 17:59N 29°29' W 090°43'3 6.3
2017-Sep-21 17:30N 29°32' W 090°42'1 2.3
2017-Sep-21 16:58N 29°34' W 090°42'0 0.0
2017-Sep-21 16:28N 29°34' W 090°42'0 0.0
2017-Sep-21 15:58N 29°34' W 090°42'0 0.0
2017-Sep-21 15:28N 29°34' W 090°42'0 0.0
2017-Sep-21 14:58N 29°34' W 090°42'0 0.0
2017-Sep-21 14:28N 29°34' W 090°42'0 0.0
2017-Sep-21 13:58N 29°34' W 090°42'0 0.0
2017-Sep-21 13:28N 29°34' W 090°42'0 0.0
2017-Sep-21 12:58N 29°34' W 090°42'0 0.0
2017-Sep-21 12:28N 29°34' W 090°42'0 0.0
2017-Sep-21 11:58N 29°34' W 090°42'0 0.0
2017-Sep-21 11:28N 29°34' W 090°42'0 0.0
2017-Sep-21 10:58N 29°34' W 090°42'0 0.0
2017-Sep-21 10:28N 29°34' W 090°42'0 0.0
2017-Sep-21 09:58N 29°34' W 090°42'0 0.0
2017-Sep-21 09:28N 29°34' W 090°42'0 0.0
2017-Sep-21 08:58N 29°34' W 090°42'0 0.0
2017-Sep-21 08:28N 29°34' W 090°42'0 0.0
2017-Sep-21 07:58N 29°34' W 090°42'0 0.0
2017-Sep-21 07:28N 29°34' W 090°42'0 0.0
2017-Sep-21 06:58N 29°34' W 090°42'0 0.0
2017-Sep-21 06:28N 29°34' W 090°42'0 0.0
2017-Sep-21 05:58N 29°34' W 090°42'0 0.0
2017-Sep-21 05:28N 29°34' W 090°42'0 0.0
2017-Sep-21 04:58N 29°34' W 090°42'0 0.0
2017-Sep-21 04:28N 29°34' W 090°42'0 0.0
2017-Sep-21 03:58N 29°34' W 090°42'0 0.0
2017-Sep-21 03:28N 29°34' W 090°42'0 0.0
2017-Sep-21 02:58N 29°34' W 090°42'0 0.0
2017-Sep-21 02:28N 29°34' W 090°42'0 0.0
2017-Sep-21 01:58N 29°34' W 090°42'0 0.0
2017-Sep-21 01:28N 29°34' W 090°42'0 0.0
2017-Sep-21 00:58N 29°34' W 090°42'0 1.1
2017-Sep-21 00:30N 29°33' W 090°42'2 4.3
2017-Sep-21 00:00N 29°34' W 090°45'3 6.9
2017-Sep-20 23:30N 29°32' W 090°49'4 8.0
2017-Sep-20 22:59N 29°33' W 090°53'5 7.9
2017-Sep-20 22:23N 29°35' W 090°58'  

Dump ship's entire track history